sensor_id;sensor_type;location;lat;lon;timestamp;P1;durP1;ratioP1;P2;durP2;ratioP2
23628;SDS011;11991;57.150;-2.134;2023-03-05T00:01:17;0.70;;;0.70;;
23628;SDS011;11991;57.150;-2.134;2023-03-05T00:03:50;2.10;;;1.00;;
23628;SDS011;11991;57.150;-2.134;2023-03-05T00:06:19;1.67;;;1.20;;
23628;SDS011;11991;57.150;-2.134;2023-03-05T00:08:48;2.07;;;1.10;;
23628;SDS011;11991;57.150;-2.134;2023-03-05T00:11:15;1.53;;;1.17;;
23628;SDS011;11991;57.150;-2.134;2023-03-05T00:13:42;1.23;;;0.90;;
23628;SDS011;11991;57.150;-2.134;2023-03-05T00:16:11;1.20;;;0.70;;
23628;SDS011;11991;57.150;-2.134;2023-03-05T00:18:39;1.53;;;0.80;;
23628;SDS011;11991;57.150;-2.134;2023-03-05T00:21:20;1.33;;;0.70;;
23628;SDS011;11991;57.150;-2.134;2023-03-05T00:23:53;0.80;;;0.80;;
23628;SDS011;11991;57.150;-2.134;2023-03-05T00:26:22;1.20;;;0.80;;
23628;SDS011;11991;57.150;-2.134;2023-03-05T00:28:52;0.80;;;0.67;;
23628;SDS011;11991;57.150;-2.134;2023-03-05T00:31:21;0.90;;;0.80;;
23628;SDS011;11991;57.150;-2.134;2023-03-05T00:33:54;1.67;;;0.87;;
23628;SDS011;11991;57.150;-2.134;2023-03-05T00:36:22;0.65;;;0.65;;
23628;SDS011;11991;57.150;-2.134;2023-03-05T00:38:50;4.23;;;1.00;;
23628;SDS011;11991;57.150;-2.134;2023-03-05T00:41:18;0.90;;;0.80;;
23628;SDS011;11991;57.150;-2.134;2023-03-05T00:43:45;1.70;;;1.07;;
23628;SDS011;11991;57.150;-2.134;2023-03-05T00:46:13;1.00;;;0.80;;
23628;SDS011;11991;57.150;-2.134;2023-03-05T00:48:40;0.60;;;0.60;;
23628;SDS011;11991;57.150;-2.134;2023-03-05T00:51:08;0.67;;;0.67;;
23628;SDS011;11991;57.150;-2.134;2023-03-05T00:53:35;0.60;;;0.60;;
23628;SDS011;11991;57.150;-2.134;2023-03-05T00:56:03;0.60;;;0.60;;
23628;SDS011;11991;57.150;-2.134;2023-03-05T00:58:31;1.13;;;0.60;;
23628;SDS011;11991;57.150;-2.134;2023-03-05T01:00:58;0.80;;;0.60;;
23628;SDS011;11991;57.150;-2.134;2023-03-05T01:03:27;0.68;;;0.68;;
23628;SDS011;11991;57.150;-2.134;2023-03-05T01:05:55;0.63;;;0.57;;
23628;SDS011;11991;57.150;-2.134;2023-03-05T01:08:23;0.75;;;0.60;;
23628;SDS011;11991;57.150;-2.134;2023-03-05T01:10:51;1.07;;;0.70;;
23628;SDS011;11991;57.150;-2.134;2023-03-05T01:13:18;1.00;;;0.60;;
23628;SDS011;11991;57.150;-2.134;2023-03-05T01:15:46;0.60;;;0.60;;
23628;SDS011;11991;57.150;-2.134;2023-03-05T01:18:16;0.70;;;0.60;;
23628;SDS011;11991;57.150;-2.134;2023-03-05T01:20:45;0.60;;;0.60;;
23628;SDS011;11991;57.150;-2.134;2023-03-05T01:23:13;0.70;;;0.70;;
23628;SDS011;11991;57.150;-2.134;2023-03-05T01:25:40;0.67;;;0.67;;
23628;SDS011;11991;57.150;-2.134;2023-03-05T01:28:08;0.50;;;0.50;;
23628;SDS011;11991;57.150;-2.134;2023-03-05T01:30:36;0.73;;;0.73;;
23628;SDS011;11991;57.150;-2.134;2023-03-05T01:33:03;0.90;;;0.70;;
23628;SDS011;11991;57.150;-2.134;2023-03-05T01:35:30;0.50;;;0.50;;
23628;SDS011;11991;57.150;-2.134;2023-03-05T01:37:58;0.70;;;0.70;;
23628;SDS011;11991;57.150;-2.134;2023-03-05T01:40:26;0.50;;;0.50;;
23628;SDS011;11991;57.150;-2.134;2023-03-05T01:42:57;1.23;;;0.63;;
23628;SDS011;11991;57.150;-2.134;2023-03-05T01:48:49;1.17;;;0.60;;
23628;SDS011;11991;57.150;-2.134;2023-03-05T01:51:21;0.40;;;0.40;;
23628;SDS011;11991;57.150;-2.134;2023-03-05T01:53:51;0.47;;;0.40;;
23628;SDS011;11991;57.150;-2.134;2023-03-05T01:56:20;0.63;;;0.60;;
23628;SDS011;11991;57.150;-2.134;2023-03-05T01:58:47;0.63;;;0.40;;
23628;SDS011;11991;57.150;-2.134;2023-03-05T02:01:17;0.50;;;0.50;;
23628;SDS011;11991;57.150;-2.134;2023-03-05T02:03:45;0.40;;;0.40;;
23628;SDS011;11991;57.150;-2.134;2023-03-05T02:06:15;0.50;;;0.50;;
23628;SDS011;11991;57.150;-2.134;2023-03-05T02:08:42;1.03;;;0.50;;
23628;SDS011;11991;57.150;-2.134;2023-03-05T02:11:09;0.53;;;0.53;;
23628;SDS011;11991;57.150;-2.134;2023-03-05T02:13:36;1.47;;;0.60;;
23628;SDS011;11991;57.150;-2.134;2023-03-05T02:16:06;0.47;;;0.47;;
23628;SDS011;11991;57.150;-2.134;2023-03-05T02:18:33;0.60;;;0.60;;
23628;SDS011;11991;57.150;-2.134;2023-03-05T02:21:02;0.50;;;0.50;;
23628;SDS011;11991;57.150;-2.134;2023-03-05T02:23:32;0.50;;;0.50;;
23628;SDS011;11991;57.150;-2.134;2023-03-05T02:26:06;0.60;;;0.60;;
23628;SDS011;11991;57.150;-2.134;2023-03-05T02:31:12;0.50;;;0.50;;
23628;SDS011;11991;57.150;-2.134;2023-03-05T02:33:42;0.90;;;0.80;;
23628;SDS011;11991;57.150;-2.134;2023-03-05T02:36:10;0.70;;;0.70;;
23628;SDS011;11991;57.150;-2.134;2023-03-05T02:38:38;0.70;;;0.70;;
23628;SDS011;11991;57.150;-2.134;2023-03-05T02:41:06;0.60;;;0.40;;
23628;SDS011;11991;57.150;-2.134;2023-03-05T02:43:34;0.70;;;0.60;;
23628;SDS011;11991;57.150;-2.134;2023-03-05T02:46:02;0.50;;;0.50;;
23628;SDS011;11991;57.150;-2.134;2023-03-05T02:48:29;0.50;;;0.50;;
23628;SDS011;11991;57.150;-2.134;2023-03-05T02:50:57;0.83;;;0.63;;
23628;SDS011;11991;57.150;-2.134;2023-03-05T02:53:24;0.60;;;0.60;;
23628;SDS011;11991;57.150;-2.134;2023-03-05T02:55:51;0.40;;;0.40;;
23628;SDS011;11991;57.150;-2.134;2023-03-05T02:58:19;0.50;;;0.50;;
23628;SDS011;11991;57.150;-2.134;2023-03-05T03:00:46;1.03;;;1.03;;
23628;SDS011;11991;57.150;-2.134;2023-03-05T03:03:13;0.63;;;0.60;;
23628;SDS011;11991;57.150;-2.134;2023-03-05T03:05:40;0.77;;;0.70;;
23628;SDS011;11991;57.150;-2.134;2023-03-05T03:08:07;0.60;;;0.60;;
23628;SDS011;11991;57.150;-2.134;2023-03-05T03:10:35;0.53;;;0.50;;
23628;SDS011;11991;57.150;-2.134;2023-03-05T03:13:03;0.73;;;0.50;;
23628;SDS011;11991;57.150;-2.134;2023-03-05T03:15:30;0.50;;;0.50;;
23628;SDS011;11991;57.150;-2.134;2023-03-05T03:17:57;0.67;;;0.50;;
23628;SDS011;11991;57.150;-2.134;2023-03-05T03:20:25;0.43;;;0.43;;
23628;SDS011;11991;57.150;-2.134;2023-03-05T03:22:52;0.60;;;0.60;;
23628;SDS011;11991;57.150;-2.134;2023-03-05T03:25:20;0.40;;;0.40;;
23628;SDS011;11991;57.150;-2.134;2023-03-05T03:27:50;0.50;;;0.50;;
23628;SDS011;11991;57.150;-2.134;2023-03-05T03:30:18;0.57;;;0.53;;
23628;SDS011;11991;57.150;-2.134;2023-03-05T03:32:45;0.50;;;0.50;;
23628;SDS011;11991;57.150;-2.134;2023-03-05T03:35:12;0.60;;;0.50;;
23628;SDS011;11991;57.150;-2.134;2023-03-05T03:37:39;1.07;;;0.40;;
23628;SDS011;11991;57.150;-2.134;2023-03-05T03:40:07;0.40;;;0.40;;
23628;SDS011;11991;57.150;-2.134;2023-03-05T03:42:35;0.43;;;0.43;;
23628;SDS011;11991;57.150;-2.134;2023-03-05T03:45:02;0.50;;;0.50;;
23628;SDS011;11991;57.150;-2.134;2023-03-05T03:47:30;0.43;;;0.43;;
23628;SDS011;11991;57.150;-2.134;2023-03-05T03:49:57;0.40;;;0.40;;
23628;SDS011;11991;57.150;-2.134;2023-03-05T03:52:24;0.40;;;0.40;;
23628;SDS011;11991;57.150;-2.134;2023-03-05T03:54:52;0.97;;;0.53;;
23628;SDS011;11991;57.150;-2.134;2023-03-05T03:57:21;1.60;;;0.50;;
23628;SDS011;11991;57.150;-2.134;2023-03-05T03:59:48;0.60;;;0.60;;
23628;SDS011;11991;57.150;-2.134;2023-03-05T04:02:16;0.60;;;0.60;;
23628;SDS011;11991;57.150;-2.134;2023-03-05T04:04:43;0.50;;;0.50;;
23628;SDS011;11991;57.150;-2.134;2023-03-05T04:07:11;0.80;;;0.77;;
23628;SDS011;11991;57.150;-2.134;2023-03-05T04:09:38;0.47;;;0.47;;
23628;SDS011;11991;57.150;-2.134;2023-03-05T04:12:05;0.70;;;0.70;;
23628;SDS011;11991;57.150;-2.134;2023-03-05T04:14:33;1.30;;;0.60;;
23628;SDS011;11991;57.150;-2.134;2023-03-05T04:17:00;0.80;;;0.50;;
23628;SDS011;11991;57.150;-2.134;2023-03-05T04:19:27;0.60;;;0.50;;
23628;SDS011;11991;57.150;-2.134;2023-03-05T04:21:57;0.40;;;0.40;;
23628;SDS011;11991;57.150;-2.134;2023-03-05T04:24:24;0.60;;;0.60;;
23628;SDS011;11991;57.150;-2.134;2023-03-05T04:26:51;0.50;;;0.50;;
23628;SDS011;11991;57.150;-2.134;2023-03-05T04:29:19;0.50;;;0.50;;
23628;SDS011;11991;57.150;-2.134;2023-03-05T04:31:46;1.67;;;0.60;;
23628;SDS011;11991;57.150;-2.134;2023-03-05T04:34:13;0.40;;;0.40;;
23628;SDS011;11991;57.150;-2.134;2023-03-05T04:36:40;0.40;;;0.40;;
23628;SDS011;11991;57.150;-2.134;2023-03-05T04:39:07;0.50;;;0.50;;
23628;SDS011;11991;57.150;-2.134;2023-03-05T04:41:35;0.50;;;0.50;;
23628;SDS011;11991;57.150;-2.134;2023-03-05T04:44:02;0.60;;;0.50;;
23628;SDS011;11991;57.150;-2.134;2023-03-05T04:46:29;0.50;;;0.40;;
23628;SDS011;11991;57.150;-2.134;2023-03-05T04:48:57;0.53;;;0.53;;
23628;SDS011;11991;57.150;-2.134;2023-03-05T04:51:24;0.50;;;0.50;;
23628;SDS011;11991;57.150;-2.134;2023-03-05T04:53:52;0.60;;;0.60;;
23628;SDS011;11991;57.150;-2.134;2023-03-05T04:56:19;0.50;;;0.50;;
23628;SDS011;11991;57.150;-2.134;2023-03-05T04:58:46;2.13;;;0.60;;
23628;SDS011;11991;57.150;-2.134;2023-03-05T05:01:13;0.50;;;0.50;;
23628;SDS011;11991;57.150;-2.134;2023-03-05T05:03:41;0.43;;;0.43;;
23628;SDS011;11991;57.150;-2.134;2023-03-05T05:06:08;0.60;;;0.50;;
23628;SDS011;11991;57.150;-2.134;2023-03-05T05:08:35;1.10;;;0.80;;
23628;SDS011;11991;57.150;-2.134;2023-03-05T05:11:03;0.70;;;0.70;;
23628;SDS011;11991;57.150;-2.134;2023-03-05T05:13:32;0.63;;;0.40;;
23628;SDS011;11991;57.150;-2.134;2023-03-05T05:16:00;1.13;;;1.03;;
23628;SDS011;11991;57.150;-2.134;2023-03-05T05:18:27;1.23;;;0.50;;
23628;SDS011;11991;57.150;-2.134;2023-03-05T05:20:54;0.43;;;0.43;;
23628;SDS011;11991;57.150;-2.134;2023-03-05T05:23:21;0.63;;;0.60;;
23628;SDS011;11991;57.150;-2.134;2023-03-05T05:25:58;0.50;;;0.50;;
23628;SDS011;11991;57.150;-2.134;2023-03-05T05:28:27;0.77;;;0.60;;
23628;SDS011;11991;57.150;-2.134;2023-03-05T05:30:54;0.50;;;0.50;;
23628;SDS011;11991;57.150;-2.134;2023-03-05T05:33:22;0.37;;;0.37;;
23628;SDS011;11991;57.150;-2.134;2023-03-05T05:35:49;0.40;;;0.40;;
23628;SDS011;11991;57.150;-2.134;2023-03-05T05:38:17;0.40;;;0.40;;
23628;SDS011;11991;57.150;-2.134;2023-03-05T05:40:44;0.60;;;0.40;;
23628;SDS011;11991;57.150;-2.134;2023-03-05T05:43:11;0.47;;;0.47;;
23628;SDS011;11991;57.150;-2.134;2023-03-05T05:45:38;0.50;;;0.50;;
23628;SDS011;11991;57.150;-2.134;2023-03-05T05:48:06;0.50;;;0.50;;
23628;SDS011;11991;57.150;-2.134;2023-03-05T05:50:33;1.30;;;0.53;;
23628;SDS011;11991;57.150;-2.134;2023-03-05T05:53:00;0.50;;;0.50;;
23628;SDS011;11991;57.150;-2.134;2023-03-05T05:55:27;0.60;;;0.50;;
23628;SDS011;11991;57.150;-2.134;2023-03-05T05:57:55;0.70;;;0.60;;
23628;SDS011;11991;57.150;-2.134;2023-03-05T06:00:22;0.50;;;0.50;;
23628;SDS011;11991;57.150;-2.134;2023-03-05T06:02:49;0.40;;;0.40;;
23628;SDS011;11991;57.150;-2.134;2023-03-05T06:05:16;0.60;;;0.60;;
23628;SDS011;11991;57.150;-2.134;2023-03-05T06:07:44;0.40;;;0.40;;
23628;SDS011;11991;57.150;-2.134;2023-03-05T06:10:11;0.50;;;0.50;;
23628;SDS011;11991;57.150;-2.134;2023-03-05T06:12:38;0.40;;;0.40;;
23628;SDS011;11991;57.150;-2.134;2023-03-05T06:15:05;0.50;;;0.50;;
23628;SDS011;11991;57.150;-2.134;2023-03-05T06:17:33;0.50;;;0.50;;
23628;SDS011;11991;57.150;-2.134;2023-03-05T06:20:01;0.40;;;0.40;;
23628;SDS011;11991;57.150;-2.134;2023-03-05T06:22:29;0.50;;;0.50;;
23628;SDS011;11991;57.150;-2.134;2023-03-05T06:24:57;0.50;;;0.50;;
23628;SDS011;11991;57.150;-2.134;2023-03-05T06:27:24;0.43;;;0.43;;
23628;SDS011;11991;57.150;-2.134;2023-03-05T06:29:52;0.40;;;0.40;;
23628;SDS011;11991;57.150;-2.134;2023-03-05T06:32:20;0.50;;;0.50;;
23628;SDS011;11991;57.150;-2.134;2023-03-05T06:34:47;0.40;;;0.40;;
23628;SDS011;11991;57.150;-2.134;2023-03-05T06:37:15;0.47;;;0.47;;
23628;SDS011;11991;57.150;-2.134;2023-03-05T06:39:42;0.40;;;0.40;;
23628;SDS011;11991;57.150;-2.134;2023-03-05T06:42:10;0.40;;;0.40;;
23628;SDS011;11991;57.150;-2.134;2023-03-05T06:44:38;0.40;;;0.40;;
23628;SDS011;11991;57.150;-2.134;2023-03-05T06:47:06;1.03;;;0.60;;
23628;SDS011;11991;57.150;-2.134;2023-03-05T06:49:36;0.40;;;0.40;;
23628;SDS011;11991;57.150;-2.134;2023-03-05T06:52:04;0.87;;;0.50;;
23628;SDS011;11991;57.150;-2.134;2023-03-05T06:54:32;0.50;;;0.47;;
23628;SDS011;11991;57.150;-2.134;2023-03-05T06:57:00;0.33;;;0.33;;
23628;SDS011;11991;57.150;-2.134;2023-03-05T06:59:27;0.50;;;0.50;;
23628;SDS011;11991;57.150;-2.134;2023-03-05T07:01:54;0.50;;;0.50;;
23628;SDS011;11991;57.150;-2.134;2023-03-05T07:04:21;0.63;;;0.60;;
23628;SDS011;11991;57.150;-2.134;2023-03-05T07:06:49;0.40;;;0.40;;
23628;SDS011;11991;57.150;-2.134;2023-03-05T07:09:17;0.50;;;0.50;;
23628;SDS011;11991;57.150;-2.134;2023-03-05T07:11:45;0.60;;;0.60;;
23628;SDS011;11991;57.150;-2.134;2023-03-05T07:14:12;0.50;;;0.50;;
23628;SDS011;11991;57.150;-2.134;2023-03-05T07:16:40;0.50;;;0.50;;
23628;SDS011;11991;57.150;-2.134;2023-03-05T07:19:07;0.50;;;0.50;;
23628;SDS011;11991;57.150;-2.134;2023-03-05T07:21:36;0.50;;;0.50;;
23628;SDS011;11991;57.150;-2.134;2023-03-05T07:24:05;0.50;;;0.50;;
23628;SDS011;11991;57.150;-2.134;2023-03-05T07:26:33;0.50;;;0.50;;
23628;SDS011;11991;57.150;-2.134;2023-03-05T07:29:01;0.50;;;0.50;;
23628;SDS011;11991;57.150;-2.134;2023-03-05T07:31:28;1.13;;;0.50;;
23628;SDS011;11991;57.150;-2.134;2023-03-05T07:33:58;0.50;;;0.50;;
23628;SDS011;11991;57.150;-2.134;2023-03-05T07:36:26;0.80;;;0.40;;
23628;SDS011;11991;57.150;-2.134;2023-03-05T07:38:54;0.50;;;0.50;;
23628;SDS011;11991;57.150;-2.134;2023-03-05T07:41:22;0.43;;;0.43;;
23628;SDS011;11991;57.150;-2.134;2023-03-05T07:43:50;0.50;;;0.50;;
23628;SDS011;11991;57.150;-2.134;2023-03-05T07:46:19;0.50;;;0.50;;
23628;SDS011;11991;57.150;-2.134;2023-03-05T07:48:48;0.50;;;0.50;;
23628;SDS011;11991;57.150;-2.134;2023-03-05T07:51:16;0.50;;;0.50;;
23628;SDS011;11991;57.150;-2.134;2023-03-05T07:53:46;0.40;;;0.40;;
23628;SDS011;11991;57.150;-2.134;2023-03-05T07:56:21;0.40;;;0.40;;
23628;SDS011;11991;57.150;-2.134;2023-03-05T07:58:49;0.40;;;0.40;;
23628;SDS011;11991;57.150;-2.134;2023-03-05T08:01:17;1.07;;;0.57;;
23628;SDS011;11991;57.150;-2.134;2023-03-05T08:03:44;0.40;;;0.40;;
23628;SDS011;11991;57.150;-2.134;2023-03-05T08:06:12;0.73;;;0.50;;
23628;SDS011;11991;57.150;-2.134;2023-03-05T08:08:39;0.43;;;0.43;;
23628;SDS011;11991;57.150;-2.134;2023-03-05T08:11:07;0.40;;;0.40;;
23628;SDS011;11991;57.150;-2.134;2023-03-05T08:13:37;0.60;;;0.60;;
23628;SDS011;11991;57.150;-2.134;2023-03-05T08:16:08;0.60;;;0.60;;
23628;SDS011;11991;57.150;-2.134;2023-03-05T08:18:40;0.93;;;0.53;;
23628;SDS011;11991;57.150;-2.134;2023-03-05T08:21:15;0.40;;;0.40;;
23628;SDS011;11991;57.150;-2.134;2023-03-05T08:23:47;1.27;;;0.60;;
23628;SDS011;11991;57.150;-2.134;2023-03-05T08:26:16;0.40;;;0.40;;
23628;SDS011;11991;57.150;-2.134;2023-03-05T08:28:46;0.40;;;0.40;;
23628;SDS011;11991;57.150;-2.134;2023-03-05T08:31:14;0.40;;;0.40;;
23628;SDS011;11991;57.150;-2.134;2023-03-05T08:33:42;0.80;;;0.40;;
23628;SDS011;11991;57.150;-2.134;2023-03-05T08:36:09;0.40;;;0.40;;
23628;SDS011;11991;57.150;-2.134;2023-03-05T08:38:37;0.40;;;0.40;;
23628;SDS011;11991;57.150;-2.134;2023-03-05T08:41:04;0.50;;;0.50;;
23628;SDS011;11991;57.150;-2.134;2023-03-05T08:43:31;1.20;;;0.40;;
23628;SDS011;11991;57.150;-2.134;2023-03-05T08:45:59;0.40;;;0.40;;
23628;SDS011;11991;57.150;-2.134;2023-03-05T08:48:27;0.40;;;0.40;;
23628;SDS011;11991;57.150;-2.134;2023-03-05T08:50:54;0.50;;;0.50;;
23628;SDS011;11991;57.150;-2.134;2023-03-05T08:53:22;0.40;;;0.40;;
23628;SDS011;11991;57.150;-2.134;2023-03-05T08:55:56;0.50;;;0.50;;
23628;SDS011;11991;57.150;-2.134;2023-03-05T08:58:24;0.53;;;0.53;;
23628;SDS011;11991;57.150;-2.134;2023-03-05T09:00:51;0.57;;;0.57;;
23628;SDS011;11991;57.150;-2.134;2023-03-05T09:03:19;0.50;;;0.50;;
23628;SDS011;11991;57.150;-2.134;2023-03-05T09:05:46;0.70;;;0.50;;
23628;SDS011;11991;57.150;-2.134;2023-03-05T09:08:14;0.57;;;0.53;;
23628;SDS011;11991;57.150;-2.134;2023-03-05T09:10:41;0.70;;;0.70;;
23628;SDS011;11991;57.150;-2.134;2023-03-05T09:13:09;1.40;;;0.60;;
23628;SDS011;11991;57.150;-2.134;2023-03-05T09:15:37;0.70;;;0.70;;
23628;SDS011;11991;57.150;-2.134;2023-03-05T09:18:04;1.13;;;0.93;;
23628;SDS011;11991;57.150;-2.134;2023-03-05T09:20:34;0.93;;;0.53;;
23628;SDS011;11991;57.150;-2.134;2023-03-05T09:23:02;1.30;;;0.90;;
23628;SDS011;11991;57.150;-2.134;2023-03-05T09:25:29;0.67;;;0.60;;
23628;SDS011;11991;57.150;-2.134;2023-03-05T09:27:58;0.70;;;0.70;;
23628;SDS011;11991;57.150;-2.134;2023-03-05T09:30:25;1.73;;;0.80;;
23628;SDS011;11991;57.150;-2.134;2023-03-05T09:32:52;0.80;;;0.80;;
23628;SDS011;11991;57.150;-2.134;2023-03-05T09:35:20;2.17;;;0.80;;
23628;SDS011;11991;57.150;-2.134;2023-03-05T09:37:47;2.20;;;0.80;;
23628;SDS011;11991;57.150;-2.134;2023-03-05T09:40:15;0.80;;;0.80;;
23628;SDS011;11991;57.150;-2.134;2023-03-05T09:49:10;0.40;;;0.40;;
23628;SDS011;11991;57.150;-2.134;2023-03-05T09:52:02;0.50;;;0.50;;
23628;SDS011;11991;57.150;-2.134;2023-03-05T09:54:43;2.13;;;0.73;;
23628;SDS011;11991;57.150;-2.134;2023-03-05T09:57:17;0.50;;;0.50;;
23628;SDS011;11991;57.150;-2.134;2023-03-05T10:02:25;0.63;;;0.63;;
23628;SDS011;11991;57.150;-2.134;2023-03-05T10:04:57;0.90;;;0.80;;
23628;SDS011;11991;57.150;-2.134;2023-03-05T10:07:30;0.80;;;0.80;;
23628;SDS011;11991;57.150;-2.134;2023-03-05T10:10:11;1.27;;;0.70;;
23628;SDS011;11991;57.150;-2.134;2023-03-05T10:12:44;0.60;;;0.60;;
23628;SDS011;11991;57.150;-2.134;2023-03-05T10:15:15;0.60;;;0.60;;
23628;SDS011;11991;57.150;-2.134;2023-03-05T10:28:33;1.43;;;0.73;;
23628;SDS011;11991;57.150;-2.134;2023-03-05T10:37:14;0.70;;;0.60;;
23628;SDS011;11991;57.150;-2.134;2023-03-05T10:42:44;0.90;;;0.70;;
23628;SDS011;11991;57.150;-2.134;2023-03-05T10:45:43;0.40;;;0.40;;
23628;SDS011;11991;57.150;-2.134;2023-03-05T10:54:08;0.70;;;0.40;;
23628;SDS011;11991;57.150;-2.134;2023-03-05T10:56:37;0.37;;;0.37;;
23628;SDS011;11991;57.150;-2.134;2023-03-05T10:59:04;0.93;;;0.50;;
23628;SDS011;11991;57.150;-2.134;2023-03-05T11:01:31;1.07;;;0.60;;
23628;SDS011;11991;57.150;-2.134;2023-03-05T11:04:02;0.60;;;0.60;;
23628;SDS011;11991;57.150;-2.134;2023-03-05T11:11:42;2.83;;;0.80;;
23628;SDS011;11991;57.150;-2.134;2023-03-05T11:14:24;0.87;;;0.70;;
23628;SDS011;11991;57.150;-2.134;2023-03-05T11:16:56;0.67;;;0.60;;
23628;SDS011;11991;57.150;-2.134;2023-03-05T11:19:25;2.00;;;0.97;;
23628;SDS011;11991;57.150;-2.134;2023-03-05T11:22:06;1.43;;;1.33;;
23628;SDS011;11991;57.150;-2.134;2023-03-05T11:24:33;0.60;;;0.60;;
23628;SDS011;11991;57.150;-2.134;2023-03-05T11:27:01;1.80;;;0.77;;
23628;SDS011;11991;57.150;-2.134;2023-03-05T11:29:30;2.43;;;0.80;;
23628;SDS011;11991;57.150;-2.134;2023-03-05T11:32:15;4.45;;;0.80;;
23628;SDS011;11991;57.150;-2.134;2023-03-05T11:34:43;1.80;;;0.65;;
23628;SDS011;11991;57.150;-2.134;2023-03-05T11:37:18;1.33;;;0.70;;
23628;SDS011;11991;57.150;-2.134;2023-03-05T11:42:37;0.90;;;0.60;;
23628;SDS011;11991;57.150;-2.134;2023-03-05T11:45:09;0.68;;;0.68;;
23628;SDS011;11991;57.150;-2.134;2023-03-05T11:47:47;2.92;;;1.20;;
23628;SDS011;11991;57.150;-2.134;2023-03-05T11:52:56;0.90;;;0.77;;
23628;SDS011;11991;57.150;-2.134;2023-03-05T12:00:34;2.10;;;1.10;;
23628;SDS011;11991;57.150;-2.134;2023-03-05T12:03:04;1.33;;;1.13;;
23628;SDS011;11991;57.150;-2.134;2023-03-05T12:05:39;0.85;;;0.82;;
23628;SDS011;11991;57.150;-2.134;2023-03-05T12:08:17;3.97;;;1.40;;
23628;SDS011;11991;57.150;-2.134;2023-03-05T12:10:51;2.30;;;0.90;;
23628;SDS011;11991;57.150;-2.134;2023-03-05T12:23:48;3.72;;;0.98;;
23628;SDS011;11991;57.150;-2.134;2023-03-05T12:26:52;1.05;;;0.85;;
23628;SDS011;11991;57.150;-2.134;2023-03-05T12:32:03;2.42;;;0.73;;
23628;SDS011;11991;57.150;-2.134;2023-03-05T12:39:59;5.57;;;0.98;;
23628;SDS011;11991;57.150;-2.134;2023-03-05T12:47:38;4.13;;;1.35;;
23628;SDS011;11991;57.150;-2.134;2023-03-05T12:52:56;4.88;;;1.88;;
23628;SDS011;11991;57.150;-2.134;2023-03-05T12:55:47;2.72;;;1.00;;
23628;SDS011;11991;57.150;-2.134;2023-03-05T12:58:39;1.85;;;0.70;;
23628;SDS011;11991;57.150;-2.134;2023-03-05T13:03:52;1.38;;;0.77;;
23628;SDS011;11991;57.150;-2.134;2023-03-05T13:06:29;1.55;;;0.77;;
23628;SDS011;11991;57.150;-2.134;2023-03-05T13:09:03;1.05;;;0.70;;
23628;SDS011;11991;57.150;-2.134;2023-03-05T13:11:33;1.90;;;0.80;;
23628;SDS011;11991;57.150;-2.134;2023-03-05T13:14:15;1.58;;;0.88;;
23628;SDS011;11991;57.150;-2.134;2023-03-05T13:16:53;0.55;;;0.55;;
23628;SDS011;11991;57.150;-2.134;2023-03-05T13:19:21;1.15;;;0.65;;
23628;SDS011;11991;57.150;-2.134;2023-03-05T13:22:22;0.90;;;0.70;;
23628;SDS011;11991;57.150;-2.134;2023-03-05T13:24:42;0.85;;;0.70;;
23628;SDS011;11991;57.150;-2.134;2023-03-05T13:27:28;1.42;;;0.70;;
23628;SDS011;11991;57.150;-2.134;2023-03-05T13:29:56;2.63;;;0.90;;
23628;SDS011;11991;57.150;-2.134;2023-03-05T13:32:24;2.70;;;0.98;;
23628;SDS011;11991;57.150;-2.134;2023-03-05T13:34:58;1.85;;;0.80;;
23628;SDS011;11991;57.150;-2.134;2023-03-05T13:37:27;1.25;;;0.82;;
23628;SDS011;11991;57.150;-2.134;2023-03-05T13:40:03;1.35;;;0.70;;
23628;SDS011;11991;57.150;-2.134;2023-03-05T13:42:44;1.20;;;0.93;;
23628;SDS011;11991;57.150;-2.134;2023-03-05T13:47:52;2.22;;;1.17;;
23628;SDS011;11991;57.150;-2.134;2023-03-05T13:53:19;0.65;;;0.52;;
23628;SDS011;11991;57.150;-2.134;2023-03-05T13:55:50;1.92;;;1.10;;
23628;SDS011;11991;57.150;-2.134;2023-03-05T14:04:06;2.00;;;1.33;;
23628;SDS011;11991;57.150;-2.134;2023-03-05T14:06:36;1.45;;;0.88;;
23628;SDS011;11991;57.150;-2.134;2023-03-05T14:09:19;0.88;;;0.75;;
23628;SDS011;11991;57.150;-2.134;2023-03-05T14:12:02;0.90;;;0.65;;
23628;SDS011;11991;57.150;-2.134;2023-03-05T14:14:52;2.13;;;1.00;;
23628;SDS011;11991;57.150;-2.134;2023-03-05T14:20:06;2.17;;;1.10;;
23628;SDS011;11991;57.150;-2.134;2023-03-05T14:22:58;2.88;;;1.08;;
23628;SDS011;11991;57.150;-2.134;2023-03-05T14:25:37;5.18;;;0.82;;
23628;SDS011;11991;57.150;-2.134;2023-03-05T14:28:06;1.52;;;0.82;;
23628;SDS011;11991;57.150;-2.134;2023-03-05T14:30:48;2.38;;;1.00;;
23628;SDS011;11991;57.150;-2.134;2023-03-05T14:33:28;1.38;;;0.95;;
23628;SDS011;11991;57.150;-2.134;2023-03-05T14:35:58;2.17;;;1.13;;
23628;SDS011;11991;57.150;-2.134;2023-03-05T14:38:27;2.08;;;0.98;;
23628;SDS011;11991;57.150;-2.134;2023-03-05T14:40:57;2.05;;;1.00;;
23628;SDS011;11991;57.150;-2.134;2023-03-05T14:43:24;0.88;;;0.73;;
23628;SDS011;11991;57.150;-2.134;2023-03-05T14:45:51;2.10;;;0.95;;
23628;SDS011;11991;57.150;-2.134;2023-03-05T14:48:19;1.88;;;1.20;;
23628;SDS011;11991;57.150;-2.134;2023-03-05T14:50:47;1.42;;;1.02;;
23628;SDS011;11991;57.150;-2.134;2023-03-05T14:53:21;2.72;;;1.23;;
23628;SDS011;11991;57.150;-2.134;2023-03-05T14:55:54;1.08;;;0.60;;
23628;SDS011;11991;57.150;-2.134;2023-03-05T14:58:23;4.50;;;1.38;;
23628;SDS011;11991;57.150;-2.134;2023-03-05T15:00:54;2.72;;;1.40;;
23628;SDS011;11991;57.150;-2.134;2023-03-05T15:03:23;2.72;;;1.42;;
23628;SDS011;11991;57.150;-2.134;2023-03-05T15:05:51;1.75;;;1.08;;
23628;SDS011;11991;57.150;-2.134;2023-03-05T15:08:25;2.00;;;1.20;;
23628;SDS011;11991;57.150;-2.134;2023-03-05T15:10:54;3.55;;;1.23;;
23628;SDS011;11991;57.150;-2.134;2023-03-05T15:13:22;1.05;;;0.73;;
23628;SDS011;11991;57.150;-2.134;2023-03-05T15:15:50;1.95;;;1.63;;
23628;SDS011;11991;57.150;-2.134;2023-03-05T15:18:19;2.08;;;1.40;;
23628;SDS011;11991;57.150;-2.134;2023-03-05T15:20:48;2.88;;;1.30;;
23628;SDS011;11991;57.150;-2.134;2023-03-05T15:23:18;3.30;;;1.00;;
23628;SDS011;11991;57.150;-2.134;2023-03-05T15:25:45;5.07;;;1.20;;
23628;SDS011;11991;57.150;-2.134;2023-03-05T15:28:13;0.90;;;0.70;;
23628;SDS011;11991;57.150;-2.134;2023-03-05T15:30:42;1.08;;;0.70;;
23628;SDS011;11991;57.150;-2.134;2023-03-05T15:33:12;3.30;;;1.38;;
23628;SDS011;11991;57.150;-2.134;2023-03-05T15:35:41;1.80;;;0.90;;
23628;SDS011;11991;57.150;-2.134;2023-03-05T15:38:09;1.20;;;0.68;;
23628;SDS011;11991;57.150;-2.134;2023-03-05T15:40:36;2.58;;;1.08;;
23628;SDS011;11991;57.150;-2.134;2023-03-05T15:43:04;1.23;;;1.03;;
23628;SDS011;11991;57.150;-2.134;2023-03-05T15:45:31;2.60;;;0.93;;
23628;SDS011;11991;57.150;-2.134;2023-03-05T15:47:59;2.00;;;1.20;;
23628;SDS011;11991;57.150;-2.134;2023-03-05T15:50:26;3.38;;;2.25;;
23628;SDS011;11991;57.150;-2.134;2023-03-05T15:52:54;2.20;;;1.48;;
23628;SDS011;11991;57.150;-2.134;2023-03-05T15:55:21;30.30;;;14.68;;
23628;SDS011;11991;57.150;-2.134;2023-03-05T15:57:49;32.60;;;16.23;;
23628;SDS011;11991;57.150;-2.134;2023-03-05T16:00:19;12.00;;;4.68;;
23628;SDS011;11991;57.150;-2.134;2023-03-05T16:02:51;10.50;;;4.05;;
23628;SDS011;11991;57.150;-2.134;2023-03-05T16:05:18;5.07;;;2.67;;
23628;SDS011;11991;57.150;-2.134;2023-03-05T16:07:46;4.30;;;2.08;;
23628;SDS011;11991;57.150;-2.134;2023-03-05T16:10:18;2.70;;;1.60;;
23628;SDS011;11991;57.150;-2.134;2023-03-05T16:12:54;1.90;;;1.27;;
23628;SDS011;11991;57.150;-2.134;2023-03-05T16:15:29;1.98;;;1.42;;
23628;SDS011;11991;57.150;-2.134;2023-03-05T16:17:59;5.78;;;2.33;;
23628;SDS011;11991;57.150;-2.134;2023-03-05T16:20:30;1.75;;;1.00;;
23628;SDS011;11991;57.150;-2.134;2023-03-05T16:22:57;2.85;;;1.15;;
23628;SDS011;11991;57.150;-2.134;2023-03-05T16:25:25;1.88;;;1.00;;
23628;SDS011;11991;57.150;-2.134;2023-03-05T16:27:52;1.70;;;0.90;;